sensor_id;sensor_type;location;lat;lon;timestamp;temperature;humidity
52743;DHT22;55583;53.012;6.556;2023-07-02T00:01:49;15.60;99.90
52743;DHT22;55583;53.012;6.556;2023-07-02T00:04:15;15.50;99.90
52743;DHT22;55583;53.012;6.556;2023-07-02T00:06:45;15.50;99.90
52743;DHT22;55583;53.012;6.556;2023-07-02T00:09:11;15.50;99.90
52743;DHT22;55583;53.012;6.556;2023-07-02T00:11:38;15.50;99.90
52743;DHT22;55583;53.012;6.556;2023-07-02T00:14:05;15.50;99.90
52743;DHT22;55583;53.012;6.556;2023-07-02T00:16:31;15.50;99.90
52743;DHT22;55583;53.012;6.556;2023-07-02T00:18:56;15.50;99.90
52743;DHT22;55583;53.012;6.556;2023-07-02T00:21:22;15.50;99.90
52743;DHT22;55583;53.012;6.556;2023-07-02T00:23:50;15.50;99.90
52743;DHT22;55583;53.012;6.556;2023-07-02T00:26:16;15.50;99.90
52743;DHT22;55583;53.012;6.556;2023-07-02T00:28:42;15.40;99.90
52743;DHT22;55583;53.012;6.556;2023-07-02T00:31:08;15.40;99.90
52743;DHT22;55583;53.012;6.556;2023-07-02T00:33:34;15.40;99.90
52743;DHT22;55583;53.012;6.556;2023-07-02T00:35:59;15.30;99.90
52743;DHT22;55583;53.012;6.556;2023-07-02T00:38:26;15.30;99.90
52743;DHT22;55583;53.012;6.556;2023-07-02T00:40:52;15.20;99.90
52743;DHT22;55583;53.012;6.556;2023-07-02T00:43:17;15.10;99.90
52743;DHT22;55583;53.012;6.556;2023-07-02T00:45:44;15.10;99.90
52743;DHT22;55583;53.012;6.556;2023-07-02T00:48:10;15.00;99.90
52743;DHT22;55583;53.012;6.556;2023-07-02T00:50:36;15.00;99.90
52743;DHT22;55583;53.012;6.556;2023-07-02T00:53:02;14.90;99.90
52743;DHT22;55583;53.012;6.556;2023-07-02T00:55:27;14.90;99.90
52743;DHT22;55583;53.012;6.556;2023-07-02T00:57:53;14.80;99.90
52743;DHT22;55583;53.012;6.556;2023-07-02T01:00:22;14.70;99.90
52743;DHT22;55583;53.012;6.556;2023-07-02T01:02:54;14.70;99.90
52743;DHT22;55583;53.012;6.556;2023-07-02T01:05:26;14.60;99.90
52743;DHT22;55583;53.012;6.556;2023-07-02T01:08:02;14.70;99.90
52743;DHT22;55583;53.012;6.556;2023-07-02T01:10:28;14.60;99.90
52743;DHT22;55583;53.012;6.556;2023-07-02T01:12:58;14.50;99.90
52743;DHT22;55583;53.012;6.556;2023-07-02T01:15:24;14.50;99.90
52743;DHT22;55583;53.012;6.556;2023-07-02T01:17:51;14.40;99.90
52743;DHT22;55583;53.012;6.556;2023-07-02T01:20:18;14.40;99.90
52743;DHT22;55583;53.012;6.556;2023-07-02T01:22:45;14.40;99.90
52743;DHT22;55583;53.012;6.556;2023-07-02T01:25:15;14.30;99.90
52743;DHT22;55583;53.012;6.556;2023-07-02T01:27:41;14.30;99.90
52743;DHT22;55583;53.012;6.556;2023-07-02T01:30:07;14.20;99.90
52743;DHT22;55583;53.012;6.556;2023-07-02T01:32:34;14.20;99.90
52743;DHT22;55583;53.012;6.556;2023-07-02T01:35:00;14.20;99.90
52743;DHT22;55583;53.012;6.556;2023-07-02T01:37:26;14.10;99.90
52743;DHT22;55583;53.012;6.556;2023-07-02T01:39:52;14.00;99.90
52743;DHT22;55583;53.012;6.556;2023-07-02T01:42:19;14.00;99.90
52743;DHT22;55583;53.012;6.556;2023-07-02T01:44:46;14.00;99.90
52743;DHT22;55583;53.012;6.556;2023-07-02T01:47:13;13.80;99.90
52743;DHT22;55583;53.012;6.556;2023-07-02T01:49:39;13.90;99.90
52743;DHT22;55583;53.012;6.556;2023-07-02T01:52:05;13.90;99.90
52743;DHT22;55583;53.012;6.556;2023-07-02T01:54:34;13.80;99.90
52743;DHT22;55583;53.012;6.556;2023-07-02T01:57:00;13.80;99.90
52743;DHT22;55583;53.012;6.556;2023-07-02T01:59:26;13.70;99.90
52743;DHT22;55583;53.012;6.556;2023-07-02T02:01:52;13.70;99.90
52743;DHT22;55583;53.012;6.556;2023-07-02T02:04:17;13.70;99.90
52743;DHT22;55583;53.012;6.556;2023-07-02T02:06:44;13.60;99.90
52743;DHT22;55583;53.012;6.556;2023-07-02T02:09:09;13.60;99.90
52743;DHT22;55583;53.012;6.556;2023-07-02T02:11:39;13.50;99.90
52743;DHT22;55583;53.012;6.556;2023-07-02T02:14:05;13.50;99.90
52743;DHT22;55583;53.012;6.556;2023-07-02T02:16:30;13.40;99.90
52743;DHT22;55583;53.012;6.556;2023-07-02T02:18:56;13.40;99.90
52743;DHT22;55583;53.012;6.556;2023-07-02T02:21:22;13.30;99.90
52743;DHT22;55583;53.012;6.556;2023-07-02T02:23:48;13.40;99.90
52743;DHT22;55583;53.012;6.556;2023-07-02T02:26:14;13.20;99.90
52743;DHT22;55583;53.012;6.556;2023-07-02T02:28:40;13.10;99.90
52743;DHT22;55583;53.012;6.556;2023-07-02T02:31:06;13.10;99.90
52743;DHT22;55583;53.012;6.556;2023-07-02T02:33:32;13.10;99.90
52743;DHT22;55583;53.012;6.556;2023-07-02T02:35:58;13.00;99.90
52743;DHT22;55583;53.012;6.556;2023-07-02T02:38:24;12.90;99.90
52743;DHT22;55583;53.012;6.556;2023-07-02T02:40:50;12.90;99.90
52743;DHT22;55583;53.012;6.556;2023-07-02T02:43:15;12.90;99.90
52743;DHT22;55583;53.012;6.556;2023-07-02T02:45:44;12.90;99.90
52743;DHT22;55583;53.012;6.556;2023-07-02T02:48:10;12.80;99.90
52743;DHT22;55583;53.012;6.556;2023-07-02T02:50:36;12.80;99.90
52743;DHT22;55583;53.012;6.556;2023-07-02T02:53:03;12.70;99.90
52743;DHT22;55583;53.012;6.556;2023-07-02T02:55:29;12.70;99.90
52743;DHT22;55583;53.012;6.556;2023-07-02T02:57:55;12.60;99.90
52743;DHT22;55583;53.012;6.556;2023-07-02T03:00:20;12.60;99.90
52743;DHT22;55583;53.012;6.556;2023-07-02T03:02:46;12.60;99.90
52743;DHT22;55583;53.012;6.556;2023-07-02T03:05:12;12.60;99.90
52743;DHT22;55583;53.012;6.556;2023-07-02T03:07:38;12.60;99.90
52743;DHT22;55583;53.012;6.556;2023-07-02T03:10:04;12.60;99.90
52743;DHT22;55583;53.012;6.556;2023-07-02T03:12:30;12.50;99.90
52743;DHT22;55583;53.012;6.556;2023-07-02T03:14:56;12.50;99.90
52743;DHT22;55583;53.012;6.556;2023-07-02T03:17:22;12.50;99.90
52743;DHT22;55583;53.012;6.556;2023-07-02T03:19:47;12.60;99.90
52743;DHT22;55583;53.012;6.556;2023-07-02T03:22:13;12.50;99.90
52743;DHT22;55583;53.012;6.556;2023-07-02T03:24:39;12.40;99.90
52743;DHT22;55583;53.012;6.556;2023-07-02T03:27:05;12.40;99.90
52743;DHT22;55583;53.012;6.556;2023-07-02T03:29:31;12.50;99.90
52743;DHT22;55583;53.012;6.556;2023-07-02T03:31:57;12.50;99.90
52743;DHT22;55583;53.012;6.556;2023-07-02T03:34:23;12.50;99.90
52743;DHT22;55583;53.012;6.556;2023-07-02T03:36:49;12.60;99.90
52743;DHT22;55583;53.012;6.556;2023-07-02T03:39:15;12.60;99.90
52743;DHT22;55583;53.012;6.556;2023-07-02T03:41:41;12.60;99.90
52743;DHT22;55583;53.012;6.556;2023-07-02T03:44:07;12.60;99.90
52743;DHT22;55583;53.012;6.556;2023-07-02T03:46:33;12.60;99.90
52743;DHT22;55583;53.012;6.556;2023-07-02T03:48:59;12.70;99.90
52743;DHT22;55583;53.012;6.556;2023-07-02T03:51:24;12.70;99.90
52743;DHT22;55583;53.012;6.556;2023-07-02T03:53:50;12.80;99.90
52743;DHT22;55583;53.012;6.556;2023-07-02T03:56:16;12.90;99.90
52743;DHT22;55583;53.012;6.556;2023-07-02T03:58:41;12.90;99.90
52743;DHT22;55583;53.012;6.556;2023-07-02T04:01:07;13.00;99.90
52743;DHT22;55583;53.012;6.556;2023-07-02T04:03:33;13.00;99.90
52743;DHT22;55583;53.012;6.556;2023-07-02T04:05:59;13.00;99.90
52743;DHT22;55583;53.012;6.556;2023-07-02T04:08:25;13.00;99.90
52743;DHT22;55583;53.012;6.556;2023-07-02T04:10:51;13.00;99.90
52743;DHT22;55583;53.012;6.556;2023-07-02T04:13:16;13.00;99.90
52743;DHT22;55583;53.012;6.556;2023-07-02T04:15:42;13.00;99.90
52743;DHT22;55583;53.012;6.556;2023-07-02T04:18:08;13.00;99.90
52743;DHT22;55583;53.012;6.556;2023-07-02T04:20:33;13.00;99.90
52743;DHT22;55583;53.012;6.556;2023-07-02T04:22:59;13.00;99.90
52743;DHT22;55583;53.012;6.556;2023-07-02T04:25:26;13.00;99.90
52743;DHT22;55583;53.012;6.556;2023-07-02T04:27:51;13.00;99.90
52743;DHT22;55583;53.012;6.556;2023-07-02T04:30:21;13.10;99.90
52743;DHT22;55583;53.012;6.556;2023-07-02T04:32:47;13.20;99.90
52743;DHT22;55583;53.012;6.556;2023-07-02T04:35:13;13.30;99.90
52743;DHT22;55583;53.012;6.556;2023-07-02T04:37:38;13.40;99.90
52743;DHT22;55583;53.012;6.556;2023-07-02T04:40:05;13.50;99.90
52743;DHT22;55583;53.012;6.556;2023-07-02T04:42:39;13.50;99.90
52743;DHT22;55583;53.012;6.556;2023-07-02T04:45:07;13.60;99.90
52743;DHT22;55583;53.012;6.556;2023-07-02T04:47:34;13.70;99.90
52743;DHT22;55583;53.012;6.556;2023-07-02T04:50:00;13.70;99.90
52743;DHT22;55583;53.012;6.556;2023-07-02T04:52:27;13.80;99.90
52743;DHT22;55583;53.012;6.556;2023-07-02T04:54:52;13.90;99.90
52743;DHT22;55583;53.012;6.556;2023-07-02T04:57:18;14.00;99.90
52743;DHT22;55583;53.012;6.556;2023-07-02T04:59:44;14.00;99.90
52743;DHT22;55583;53.012;6.556;2023-07-02T05:02:10;14.10;99.90
52743;DHT22;55583;53.012;6.556;2023-07-02T05:04:36;14.20;99.90
52743;DHT22;55583;53.012;6.556;2023-07-02T05:07:05;14.20;99.90
52743;DHT22;55583;53.012;6.556;2023-07-02T05:09:31;14.30;99.90
52743;DHT22;55583;53.012;6.556;2023-07-02T05:11:57;14.30;99.90
52743;DHT22;55583;53.012;6.556;2023-07-02T05:14:23;14.40;99.90
52743;DHT22;55583;53.012;6.556;2023-07-02T05:16:49;14.40;99.90
52743;DHT22;55583;53.012;6.556;2023-07-02T05:19:16;14.60;99.90
52743;DHT22;55583;53.012;6.556;2023-07-02T05:21:42;14.50;99.90
52743;DHT22;55583;53.012;6.556;2023-07-02T05:24:08;14.60;99.90
52743;DHT22;55583;53.012;6.556;2023-07-02T05:26:34;14.70;99.90
52743;DHT22;55583;53.012;6.556;2023-07-02T05:29:00;14.70;99.90
52743;DHT22;55583;53.012;6.556;2023-07-02T05:31:26;14.80;99.90
52743;DHT22;55583;53.012;6.556;2023-07-02T05:33:53;14.80;99.90
52743;DHT22;55583;53.012;6.556;2023-07-02T05:36:19;14.80;99.90
52743;DHT22;55583;53.012;6.556;2023-07-02T05:38:45;14.90;99.90
52743;DHT22;55583;53.012;6.556;2023-07-02T05:41:10;15.00;99.90
52743;DHT22;55583;53.012;6.556;2023-07-02T05:43:36;15.00;99.90
52743;DHT22;55583;53.012;6.556;2023-07-02T05:46:01;15.10;99.90
52743;DHT22;55583;53.012;6.556;2023-07-02T05:48:27;15.10;99.90
52743;DHT22;55583;53.012;6.556;2023-07-02T05:50:53;15.20;99.90
52743;DHT22;55583;53.012;6.556;2023-07-02T05:53:19;15.30;99.90
52743;DHT22;55583;53.012;6.556;2023-07-02T05:55:44;15.50;99.90
52743;DHT22;55583;53.012;6.556;2023-07-02T05:58:10;15.50;99.90
52743;DHT22;55583;53.012;6.556;2023-07-02T06:00:36;15.60;99.90
52743;DHT22;55583;53.012;6.556;2023-07-02T06:03:02;15.60;99.90
52743;DHT22;55583;53.012;6.556;2023-07-02T06:05:28;15.70;99.90
52743;DHT22;55583;53.012;6.556;2023-07-02T06:07:53;15.90;99.90
52743;DHT22;55583;53.012;6.556;2023-07-02T06:10:19;16.20;99.90
52743;DHT22;55583;53.012;6.556;2023-07-02T06:12:45;16.50;99.90
52743;DHT22;55583;53.012;6.556;2023-07-02T06:15:10;16.70;99.90
52743;DHT22;55583;53.012;6.556;2023-07-02T06:17:36;16.80;99.90
52743;DHT22;55583;53.012;6.556;2023-07-02T06:20:03;16.80;99.90
52743;DHT22;55583;53.012;6.556;2023-07-02T06:22:30;16.70;99.90
52743;DHT22;55583;53.012;6.556;2023-07-02T06:24:56;16.80;99.90
52743;DHT22;55583;53.012;6.556;2023-07-02T06:27:21;17.00;99.90
52743;DHT22;55583;53.012;6.556;2023-07-02T06:29:47;16.90;99.90
52743;DHT22;55583;53.012;6.556;2023-07-02T06:32:13;16.90;99.90
52743;DHT22;55583;53.012;6.556;2023-07-02T06:34:39;17.00;99.90
52743;DHT22;55583;53.012;6.556;2023-07-02T06:37:05;17.20;99.90
52743;DHT22;55583;53.012;6.556;2023-07-02T06:39:30;17.50;99.90
52743;DHT22;55583;53.012;6.556;2023-07-02T06:41:56;17.70;99.90
52743;DHT22;55583;53.012;6.556;2023-07-02T06:44:22;17.70;99.90
52743;DHT22;55583;53.012;6.556;2023-07-02T06:46:48;17.70;98.40
52743;DHT22;55583;53.012;6.556;2023-07-02T06:49:13;17.60;98.60
52743;DHT22;55583;53.012;6.556;2023-07-02T06:51:39;17.60;98.50
52743;DHT22;55583;53.012;6.556;2023-07-02T06:54:06;17.80;98.50
52743;DHT22;55583;53.012;6.556;2023-07-02T06:56:32;18.00;96.70
52743;DHT22;55583;53.012;6.556;2023-07-02T06:58:59;18.40;93.80
52743;DHT22;55583;53.012;6.556;2023-07-02T07:01:25;18.50;92.20
52743;DHT22;55583;53.012;6.556;2023-07-02T07:03:51;18.50;90.60
52743;DHT22;55583;53.012;6.556;2023-07-02T07:06:17;18.70;90.20
52743;DHT22;55583;53.012;6.556;2023-07-02T07:08:42;18.90;88.20
52743;DHT22;55583;53.012;6.556;2023-07-02T07:11:08;19.10;85.30
52743;DHT22;55583;53.012;6.556;2023-07-02T07:13:34;18.80;81.30
52743;DHT22;55583;53.012;6.556;2023-07-02T07:15:59;18.70;80.70
52743;DHT22;55583;53.012;6.556;2023-07-02T07:18:25;18.70;82.00
52743;DHT22;55583;53.012;6.556;2023-07-02T07:20:51;18.60;81.60
52743;DHT22;55583;53.012;6.556;2023-07-02T07:23:18;18.60;81.80
52743;DHT22;55583;53.012;6.556;2023-07-02T07:25:44;18.50;81.50
52743;DHT22;55583;53.012;6.556;2023-07-02T07:28:10;18.30;80.60
52743;DHT22;55583;53.012;6.556;2023-07-02T07:30:44;18.20;79.70
52743;DHT22;55583;53.012;6.556;2023-07-02T07:33:10;18.30;80.20
52743;DHT22;55583;53.012;6.556;2023-07-02T07:35:36;18.50;78.50
52743;DHT22;55583;53.012;6.556;2023-07-02T07:38:02;18.70;78.20
52743;DHT22;55583;53.012;6.556;2023-07-02T07:40:28;18.80;77.70
52743;DHT22;55583;53.012;6.556;2023-07-02T07:42:54;18.90;76.20
52743;DHT22;55583;53.012;6.556;2023-07-02T07:45:20;19.00;77.30
52743;DHT22;55583;53.012;6.556;2023-07-02T07:47:45;19.20;76.30
52743;DHT22;55583;53.012;6.556;2023-07-02T07:50:11;19.30;75.70
52743;DHT22;55583;53.012;6.556;2023-07-02T07:52:38;19.10;76.90
52743;DHT22;55583;53.012;6.556;2023-07-02T07:55:04;19.00;76.30
52743;DHT22;55583;53.012;6.556;2023-07-02T07:57:30;18.70;75.60
52743;DHT22;55583;53.012;6.556;2023-07-02T07:59:56;18.40;76.40
52743;DHT22;55583;53.012;6.556;2023-07-02T08:02:21;18.00;77.90
52743;DHT22;55583;53.012;6.556;2023-07-02T08:04:48;17.70;79.70
52743;DHT22;55583;53.012;6.556;2023-07-02T08:07:14;17.50;81.60
52743;DHT22;55583;53.012;6.556;2023-07-02T08:09:40;17.60;82.70
52743;DHT22;55583;53.012;6.556;2023-07-02T08:12:06;17.70;83.20
52743;DHT22;55583;53.012;6.556;2023-07-02T08:14:31;17.90;84.10
52743;DHT22;55583;53.012;6.556;2023-07-02T08:16:57;18.10;83.90
52743;DHT22;55583;53.012;6.556;2023-07-02T08:19:23;18.40;83.20
52743;DHT22;55583;53.012;6.556;2023-07-02T08:21:48;18.50;81.90
52743;DHT22;55583;53.012;6.556;2023-07-02T08:24:14;18.30;80.10
52743;DHT22;55583;53.012;6.556;2023-07-02T08:26:40;18.10;79.60
52743;DHT22;55583;53.012;6.556;2023-07-02T08:29:05;18.00;80.10
52743;DHT22;55583;53.012;6.556;2023-07-02T08:31:31;18.10;81.00
52743;DHT22;55583;53.012;6.556;2023-07-02T08:33:57;18.40;80.90
52743;DHT22;55583;53.012;6.556;2023-07-02T08:36:22;18.70;79.50
52743;DHT22;55583;53.012;6.556;2023-07-02T08:38:48;18.70;78.10
52743;DHT22;55583;53.012;6.556;2023-07-02T08:41:15;18.50;78.90
52743;DHT22;55583;53.012;6.556;2023-07-02T08:43:40;18.40;79.30
52743;DHT22;55583;53.012;6.556;2023-07-02T08:46:06;18.40;78.40
52743;DHT22;55583;53.012;6.556;2023-07-02T08:48:34;18.30;78.60
52743;DHT22;55583;53.012;6.556;2023-07-02T08:50:59;18.30;79.60
52743;DHT22;55583;53.012;6.556;2023-07-02T08:53:25;19.10;80.20
52743;DHT22;55583;53.012;6.556;2023-07-02T08:55:55;20.30;77.70
52743;DHT22;55583;53.012;6.556;2023-07-02T08:58:24;21.20;74.10
52743;DHT22;55583;53.012;6.556;2023-07-02T09:01:14;21.60;71.90
52743;DHT22;55583;53.012;6.556;2023-07-02T09:03:40;21.60;68.80
52743;DHT22;55583;53.012;6.556;2023-07-02T09:06:08;21.90;71.90
52743;DHT22;55583;53.012;6.556;2023-07-02T09:08:34;21.90;71.20
52743;DHT22;55583;53.012;6.556;2023-07-02T09:11:16;21.50;70.50
52743;DHT22;55583;53.012;6.556;2023-07-02T09:13:50;21.40;69.50
52743;DHT22;55583;53.012;6.556;2023-07-02T09:16:30;21.10;71.30
52743;DHT22;55583;53.012;6.556;2023-07-02T09:21:28;20.30;73.60
52743;DHT22;55583;53.012;6.556;2023-07-02T09:23:54;19.90;75.00
52743;DHT22;55583;53.012;6.556;2023-07-02T09:26:23;19.50;76.60
52743;DHT22;55583;53.012;6.556;2023-07-02T09:28:49;19.00;78.80
52743;DHT22;55583;53.012;6.556;2023-07-02T09:31:15;18.50;80.70
52743;DHT22;55583;53.012;6.556;2023-07-02T09:33:42;18.30;82.10
52743;DHT22;55583;53.012;6.556;2023-07-02T09:36:07;18.30;83.00
52743;DHT22;55583;53.012;6.556;2023-07-02T09:38:33;18.20;84.00
52743;DHT22;55583;53.012;6.556;2023-07-02T09:40:59;18.00;85.30
52743;DHT22;55583;53.012;6.556;2023-07-02T09:43:25;17.80;85.60
52743;DHT22;55583;53.012;6.556;2023-07-02T09:45:54;17.70;86.10
52743;DHT22;55583;53.012;6.556;2023-07-02T09:48:24;17.60;86.90
52743;DHT22;55583;53.012;6.556;2023-07-02T09:50:53;17.70;88.20
52743;DHT22;55583;53.012;6.556;2023-07-02T09:53:19;17.90;88.30
52743;DHT22;55583;53.012;6.556;2023-07-02T09:55:45;18.70;85.70
52743;DHT22;55583;53.012;6.556;2023-07-02T09:58:11;20.20;81.80
52743;DHT22;55583;53.012;6.556;2023-07-02T10:00:39;22.00;76.30
52743;DHT22;55583;53.012;6.556;2023-07-02T10:03:06;23.50;70.50
52743;DHT22;55583;53.012;6.556;2023-07-02T10:05:33;23.80;67.80
52743;DHT22;55583;53.012;6.556;2023-07-02T10:08:14;23.80;67.00
52743;DHT22;55583;53.012;6.556;2023-07-02T10:10:42;23.80;62.40
52743;DHT22;55583;53.012;6.556;2023-07-02T10:13:08;23.10;65.20
52743;DHT22;55583;53.012;6.556;2023-07-02T10:15:33;22.10;67.00
52743;DHT22;55583;53.012;6.556;2023-07-02T10:18:04;21.30;68.30
52743;DHT22;55583;53.012;6.556;2023-07-02T10:20:38;21.40;68.80
52743;DHT22;55583;53.012;6.556;2023-07-02T10:23:05;22.70;64.00
52743;DHT22;55583;53.012;6.556;2023-07-02T10:25:33;24.30;59.50
52743;DHT22;55583;53.012;6.556;2023-07-02T10:28:01;24.70;56.40
52743;DHT22;55583;53.012;6.556;2023-07-02T10:30:34;25.20;55.50
52743;DHT22;55583;53.012;6.556;2023-07-02T10:33:16;24.80;53.20
52743;DHT22;55583;53.012;6.556;2023-07-02T10:35:47;23.80;52.60
52743;DHT22;55583;53.012;6.556;2023-07-02T10:38:17;22.80;57.10
52743;DHT22;55583;53.012;6.556;2023-07-02T10:40:43;22.00;59.00
52743;DHT22;55583;53.012;6.556;2023-07-02T10:43:09;22.00;60.10
52743;DHT22;55583;53.012;6.556;2023-07-02T10:45:35;23.30;58.90
52743;DHT22;55583;53.012;6.556;2023-07-02T10:48:08;25.00;55.80
52743;DHT22;55583;53.012;6.556;2023-07-02T10:50:34;26.20;53.70
52743;DHT22;55583;53.012;6.556;2023-07-02T10:53:00;26.90;53.10
52743;DHT22;55583;53.012;6.556;2023-07-02T10:55:26;27.00;52.90
52743;DHT22;55583;53.012;6.556;2023-07-02T10:58:07;26.60;52.50
52743;DHT22;55583;53.012;6.556;2023-07-02T11:00:50;26.30;52.60
52743;DHT22;55583;53.012;6.556;2023-07-02T11:03:26;26.20;51.00
52743;DHT22;55583;53.012;6.556;2023-07-02T11:05:52;25.60;51.10
52743;DHT22;55583;53.012;6.556;2023-07-02T11:08:19;25.00;52.50
52743;DHT22;55583;53.012;6.556;2023-07-02T11:10:50;24.20;53.90
52743;DHT22;55583;53.012;6.556;2023-07-02T11:13:17;23.30;55.80
52743;DHT22;55583;53.012;6.556;2023-07-02T11:15:44;22.80;57.10
52743;DHT22;55583;53.012;6.556;2023-07-02T11:18:14;23.40;56.00
52743;DHT22;55583;53.012;6.556;2023-07-02T11:20:42;24.60;54.40
52743;DHT22;55583;53.012;6.556;2023-07-02T11:25:54;24.20;53.30
52743;DHT22;55583;53.012;6.556;2023-07-02T11:28:20;23.90;55.60
52743;DHT22;55583;53.012;6.556;2023-07-02T11:30:46;24.20;54.90
52743;DHT22;55583;53.012;6.556;2023-07-02T11:33:12;24.60;54.20
52743;DHT22;55583;53.012;6.556;2023-07-02T11:35:37;25.30;54.20
52743;DHT22;55583;53.012;6.556;2023-07-02T11:38:03;24.80;53.40
52743;DHT22;55583;53.012;6.556;2023-07-02T11:40:28;24.10;55.00
52743;DHT22;55583;53.012;6.556;2023-07-02T11:42:54;24.30;54.40
52743;DHT22;55583;53.012;6.556;2023-07-02T11:45:20;24.90;54.00
52743;DHT22;55583;53.012;6.556;2023-07-02T11:47:46;25.70;53.50
52743;DHT22;55583;53.012;6.556;2023-07-02T11:50:12;26.30;53.30
52743;DHT22;55583;53.012;6.556;2023-07-02T11:52:38;26.90;51.90
52743;DHT22;55583;53.012;6.556;2023-07-02T11:55:04;26.00;52.10
52743;DHT22;55583;53.012;6.556;2023-07-02T11:57:30;25.20;54.20
52743;DHT22;55583;53.012;6.556;2023-07-02T11:59:55;24.40;54.70
52743;DHT22;55583;53.012;6.556;2023-07-02T12:02:21;23.90;56.10
52743;DHT22;55583;53.012;6.556;2023-07-02T12:04:47;23.30;56.40
52743;DHT22;55583;53.012;6.556;2023-07-02T12:07:13;23.50;56.10
52743;DHT22;55583;53.012;6.556;2023-07-02T12:09:39;24.70;54.10
52743;DHT22;55583;53.012;6.556;2023-07-02T12:12:05;25.80;52.60
52743;DHT22;55583;53.012;6.556;2023-07-02T12:14:30;26.60;50.10
52743;DHT22;55583;53.012;6.556;2023-07-02T12:16:56;26.90;49.40
52743;DHT22;55583;53.012;6.556;2023-07-02T12:19:22;26.40;50.00
52743;DHT22;55583;53.012;6.556;2023-07-02T12:21:47;25.70;51.50
52743;DHT22;55583;53.012;6.556;2023-07-02T12:24:13;24.60;52.20
52743;DHT22;55583;53.012;6.556;2023-07-02T12:26:40;24.00;53.70
52743;DHT22;55583;53.012;6.556;2023-07-02T12:29:06;23.50;54.40
52743;DHT22;55583;53.012;6.556;2023-07-02T12:31:31;23.20;54.20
52743;DHT22;55583;53.012;6.556;2023-07-02T12:33:57;22.90;54.40
52743;DHT22;55583;53.012;6.556;2023-07-02T12:36:23;22.30;54.10
52743;DHT22;55583;53.012;6.556;2023-07-02T12:38:49;21.80;54.90
52743;DHT22;55583;53.012;6.556;2023-07-02T12:41:15;21.40;56.40
52743;DHT22;55583;53.012;6.556;2023-07-02T12:43:40;21.20;57.50
52743;DHT22;55583;53.012;6.556;2023-07-02T12:46:06;21.10;57.70
52743;DHT22;55583;53.012;6.556;2023-07-02T12:48:32;21.10;58.40
52743;DHT22;55583;53.012;6.556;2023-07-02T12:50:59;20.70;59.10
52743;DHT22;55583;53.012;6.556;2023-07-02T12:53:26;20.40;60.50
52743;DHT22;55583;53.012;6.556;2023-07-02T12:55:52;20.50;61.20
52743;DHT22;55583;53.012;6.556;2023-07-02T12:58:18;20.80;60.80
52743;DHT22;55583;53.012;6.556;2023-07-02T13:00:44;21.10;60.70
52743;DHT22;55583;53.012;6.556;2023-07-02T13:03:12;21.80;59.60
52743;DHT22;55583;53.012;6.556;2023-07-02T13:05:38;22.20;58.70
52743;DHT22;55583;53.012;6.556;2023-07-02T13:08:04;22.10;58.90
52743;DHT22;55583;53.012;6.556;2023-07-02T13:10:31;21.60;59.00
52743;DHT22;55583;53.012;6.556;2023-07-02T13:12:57;21.10;59.10
52743;DHT22;55583;53.012;6.556;2023-07-02T13:15:23;20.70;60.90
52743;DHT22;55583;53.012;6.556;2023-07-02T13:17:49;20.40;61.40
52743;DHT22;55583;53.012;6.556;2023-07-02T13:20:14;20.20;62.10
52743;DHT22;55583;53.012;6.556;2023-07-02T13:22:40;20.00;63.00
52743;DHT22;55583;53.012;6.556;2023-07-02T13:25:06;19.90;64.00
52743;DHT22;55583;53.012;6.556;2023-07-02T13:27:32;19.90;64.10
52743;DHT22;55583;53.012;6.556;2023-07-02T13:29:58;20.00;64.40
52743;DHT22;55583;53.012;6.556;2023-07-02T13:32:24;20.00;63.80
52743;DHT22;55583;53.012;6.556;2023-07-02T13:34:50;20.00;63.90
52743;DHT22;55583;53.012;6.556;2023-07-02T13:37:16;20.00;63.50
52743;DHT22;55583;53.012;6.556;2023-07-02T13:39:45;19.80;63.20
52743;DHT22;55583;53.012;6.556;2023-07-02T13:42:11;20.00;63.00
52743;DHT22;55583;53.012;6.556;2023-07-02T13:44:37;20.30;61.60
52743;DHT22;55583;53.012;6.556;2023-07-02T13:47:03;20.40;60.20
52743;DHT22;55583;53.012;6.556;2023-07-02T13:49:30;20.30;58.90
52743;DHT22;55583;53.012;6.556;2023-07-02T13:51:55;20.30;58.60
52743;DHT22;55583;53.012;6.556;2023-07-02T13:54:21;20.20;58.70
52743;DHT22;55583;53.012;6.556;2023-07-02T13:56:47;20.10;59.40
52743;DHT22;55583;53.012;6.556;2023-07-02T13:59:14;20.20;60.00
52743;DHT22;55583;53.012;6.556;2023-07-02T14:01:40;20.30;57.80
52743;DHT22;55583;53.012;6.556;2023-07-02T14:04:06;20.10;57.10
52743;DHT22;55583;53.012;6.556;2023-07-02T14:06:32;20.00;57.60
52743;DHT22;55583;53.012;6.556;2023-07-02T14:08:57;19.90;58.50
52743;DHT22;55583;53.012;6.556;2023-07-02T14:11:24;20.50;59.00
52743;DHT22;55583;53.012;6.556;2023-07-02T14:13:50;20.70;58.30
52743;DHT22;55583;53.012;6.556;2023-07-02T14:16:16;20.60;58.60
52743;DHT22;55583;53.012;6.556;2023-07-02T14:18:41;20.50;58.60
52743;DHT22;55583;53.012;6.556;2023-07-02T14:21:07;20.40;59.30
52743;DHT22;55583;53.012;6.556;2023-07-02T14:23:33;20.40;59.20
52743;DHT22;55583;53.012;6.556;2023-07-02T14:25:59;20.40;59.00
52743;DHT22;55583;53.012;6.556;2023-07-02T14:28:25;20.40;59.30
52743;DHT22;55583;53.012;6.556;2023-07-02T14:30:58;20.30;59.20
52743;DHT22;55583;53.012;6.556;2023-07-02T14:33:25;20.30;59.50
52743;DHT22;55583;53.012;6.556;2023-07-02T14:35:52;20.30;60.00
52743;DHT22;55583;53.012;6.556;2023-07-02T14:38:18;20.20;59.50
52743;DHT22;55583;53.012;6.556;2023-07-02T14:40:43;20.10;59.50
52743;DHT22;55583;53.012;6.556;2023-07-02T14:43:09;20.00;59.80
52743;DHT22;55583;53.012;6.556;2023-07-02T14:45:34;20.20;59.10
52743;DHT22;55583;53.012;6.556;2023-07-02T14:48:00;20.60;59.30
52743;DHT22;55583;53.012;6.556;2023-07-02T14:50:26;21.20;59.50
52743;DHT22;55583;53.012;6.556;2023-07-02T14:52:53;21.80;57.60
52743;DHT22;55583;53.012;6.556;2023-07-02T14:55:18;22.30;57.30
52743;DHT22;55583;53.012;6.556;2023-07-02T14:57:44;22.50;55.60
52743;DHT22;55583;53.012;6.556;2023-07-02T15:00:10;22.30;56.40
52743;DHT22;55583;53.012;6.556;2023-07-02T15:02:36;21.90;56.30
52743;DHT22;55583;53.012;6.556;2023-07-02T15:05:01;21.60;56.40
52743;DHT22;55583;53.012;6.556;2023-07-02T15:07:28;21.30;56.70
52743;DHT22;55583;53.012;6.556;2023-07-02T15:09:54;21.00;56.40
52743;DHT22;55583;53.012;6.556;2023-07-02T15:12:19;20.60;56.90
52743;DHT22;55583;53.012;6.556;2023-07-02T15:14:45;20.40;57.40
52743;DHT22;55583;53.012;6.556;2023-07-02T15:17:11;20.30;58.00
52743;DHT22;55583;53.012;6.556;2023-07-02T15:19:36;20.40;57.70
52743;DHT22;55583;53.012;6.556;2023-07-02T15:22:02;20.60;58.30
52743;DHT22;55583;53.012;6.556;2023-07-02T15:24:28;20.70;58.20
52743;DHT22;55583;53.012;6.556;2023-07-02T15:26:54;20.70;57.60
52743;DHT22;55583;53.012;6.556;2023-07-02T15:29:19;20.40;56.70
52743;DHT22;55583;53.012;6.556;2023-07-02T15:31:45;20.20;56.80